sensor_id;sensor_type;location;lat;lon;timestamp;P1;durP1;ratioP1;P2;durP2;ratioP2
53253;SDS011;39148;53.332;6.922;2023-03-19T00:01:16;8.27;;;6.40;;
53253;SDS011;39148;53.332;6.922;2023-03-19T00:03:42;8.32;;;6.82;;
53253;SDS011;39148;53.332;6.922;2023-03-19T00:06:08;8.32;;;6.38;;
53253;SDS011;39148;53.332;6.922;2023-03-19T00:08:34;9.32;;;7.07;;
53253;SDS011;39148;53.332;6.922;2023-03-19T00:11:04;8.65;;;6.45;;
53253;SDS011;39148;53.332;6.922;2023-03-19T00:13:31;7.95;;;6.22;;
53253;SDS011;39148;53.332;6.922;2023-03-19T00:15:57;9.38;;;6.68;;
53253;SDS011;39148;53.332;6.922;2023-03-19T00:18:23;8.70;;;7.13;;
53253;SDS011;39148;53.332;6.922;2023-03-19T00:20:49;8.52;;;6.72;;
53253;SDS011;39148;53.332;6.922;2023-03-19T00:23:15;7.38;;;6.38;;
53253;SDS011;39148;53.332;6.922;2023-03-19T00:25:42;8.30;;;7.13;;
53253;SDS011;39148;53.332;6.922;2023-03-19T00:28:08;8.65;;;6.90;;
53253;SDS011;39148;53.332;6.922;2023-03-19T00:30:34;9.38;;;7.97;;
53253;SDS011;39148;53.332;6.922;2023-03-19T00:33:00;8.77;;;7.45;;
53253;SDS011;39148;53.332;6.922;2023-03-19T00:35:26;8.82;;;7.38;;
53253;SDS011;39148;53.332;6.922;2023-03-19T00:37:52;9.23;;;7.90;;
53253;SDS011;39148;53.332;6.922;2023-03-19T00:40:19;9.00;;;7.00;;
53253;SDS011;39148;53.332;6.922;2023-03-19T00:42:46;8.82;;;7.80;;
53253;SDS011;39148;53.332;6.922;2023-03-19T00:45:11;9.73;;;7.57;;
53253;SDS011;39148;53.332;6.922;2023-03-19T00:47:38;8.45;;;7.50;;
53253;SDS011;39148;53.332;6.922;2023-03-19T00:50:04;8.80;;;7.85;;
53253;SDS011;39148;53.332;6.922;2023-03-19T00:52:31;9.35;;;8.15;;
53253;SDS011;39148;53.332;6.922;2023-03-19T00:54:57;8.35;;;7.32;;
53253;SDS011;39148;53.332;6.922;2023-03-19T00:57:23;9.07;;;7.88;;
53253;SDS011;39148;53.332;6.922;2023-03-19T00:59:49;9.68;;;7.53;;
53253;SDS011;39148;53.332;6.922;2023-03-19T01:02:15;8.52;;;7.20;;
53253;SDS011;39148;53.332;6.922;2023-03-19T01:04:41;9.15;;;7.65;;
53253;SDS011;39148;53.332;6.922;2023-03-19T01:07:07;9.07;;;7.43;;
53253;SDS011;39148;53.332;6.922;2023-03-19T01:09:33;8.93;;;7.65;;
53253;SDS011;39148;53.332;6.922;2023-03-19T01:12:00;9.13;;;7.78;;
53253;SDS011;39148;53.332;6.922;2023-03-19T01:14:29;9.15;;;8.13;;
53253;SDS011;39148;53.332;6.922;2023-03-19T01:16:56;9.18;;;8.00;;
53253;SDS011;39148;53.332;6.922;2023-03-19T01:19:21;10.65;;;8.35;;
53253;SDS011;39148;53.332;6.922;2023-03-19T01:21:48;9.88;;;8.05;;
53253;SDS011;39148;53.332;6.922;2023-03-19T01:24:14;9.65;;;8.13;;
53253;SDS011;39148;53.332;6.922;2023-03-19T01:26:41;10.43;;;8.73;;
53253;SDS011;39148;53.332;6.922;2023-03-19T01:29:07;9.52;;;8.45;;
53253;SDS011;39148;53.332;6.922;2023-03-19T01:31:33;9.32;;;8.32;;
53253;SDS011;39148;53.332;6.922;2023-03-19T01:33:59;8.77;;;7.63;;
53253;SDS011;39148;53.332;6.922;2023-03-19T01:36:26;10.07;;;8.10;;
53253;SDS011;39148;53.332;6.922;2023-03-19T01:38:52;9.98;;;8.23;;
53253;SDS011;39148;53.332;6.922;2023-03-19T01:41:18;8.93;;;8.02;;
53253;SDS011;39148;53.332;6.922;2023-03-19T01:43:45;9.75;;;8.75;;
53253;SDS011;39148;53.332;6.922;2023-03-19T01:46:26;8.98;;;8.07;;
53253;SDS011;39148;53.332;6.922;2023-03-19T01:48:53;9.23;;;7.93;;
53253;SDS011;39148;53.332;6.922;2023-03-19T01:53:51;9.40;;;7.45;;
53253;SDS011;39148;53.332;6.922;2023-03-19T01:56:23;8.82;;;7.75;;
53253;SDS011;39148;53.332;6.922;2023-03-19T01:58:53;10.10;;;7.93;;
53253;SDS011;39148;53.332;6.922;2023-03-19T02:01:21;8.98;;;7.75;;
53253;SDS011;39148;53.332;6.922;2023-03-19T02:03:49;9.15;;;8.15;;
53253;SDS011;39148;53.332;6.922;2023-03-19T02:06:15;9.23;;;7.65;;
53253;SDS011;39148;53.332;6.922;2023-03-19T02:08:43;8.98;;;7.97;;
53253;SDS011;39148;53.332;6.922;2023-03-19T02:11:10;9.10;;;7.93;;
53253;SDS011;39148;53.332;6.922;2023-03-19T02:13:36;9.82;;;8.68;;
53253;SDS011;39148;53.332;6.922;2023-03-19T02:16:02;9.65;;;7.93;;
53253;SDS011;39148;53.332;6.922;2023-03-19T02:18:29;8.82;;;7.70;;
53253;SDS011;39148;53.332;6.922;2023-03-19T02:24:16;9.70;;;7.55;;
53253;SDS011;39148;53.332;6.922;2023-03-19T02:26:41;8.50;;;7.60;;
53253;SDS011;39148;53.332;6.922;2023-03-19T02:29:08;9.95;;;7.90;;
53253;SDS011;39148;53.332;6.922;2023-03-19T02:31:34;9.18;;;7.70;;
53253;SDS011;39148;53.332;6.922;2023-03-19T02:34:01;8.52;;;7.18;;
53253;SDS011;39148;53.332;6.922;2023-03-19T02:36:34;9.18;;;7.70;;
53253;SDS011;39148;53.332;6.922;2023-03-19T02:39:06;8.55;;;7.00;;
53253;SDS011;39148;53.332;6.922;2023-03-19T02:41:39;10.00;;;8.43;;
53253;SDS011;39148;53.332;6.922;2023-03-19T02:44:06;9.15;;;7.63;;
53253;SDS011;39148;53.332;6.922;2023-03-19T02:46:36;9.27;;;7.80;;
53253;SDS011;39148;53.332;6.922;2023-03-19T02:49:02;9.30;;;7.70;;
53253;SDS011;39148;53.332;6.922;2023-03-19T02:51:28;9.18;;;7.25;;
53253;SDS011;39148;53.332;6.922;2023-03-19T02:53:54;9.75;;;7.72;;
53253;SDS011;39148;53.332;6.922;2023-03-19T02:56:20;9.32;;;7.70;;
53253;SDS011;39148;53.332;6.922;2023-03-19T02:58:45;10.50;;;8.20;;
53253;SDS011;39148;53.332;6.922;2023-03-19T03:01:11;9.25;;;7.63;;
53253;SDS011;39148;53.332;6.922;2023-03-19T03:03:37;9.20;;;7.78;;
53253;SDS011;39148;53.332;6.922;2023-03-19T03:06:03;8.55;;;7.30;;
53253;SDS011;39148;53.332;6.922;2023-03-19T03:08:30;9.23;;;7.40;;
53253;SDS011;39148;53.332;6.922;2023-03-19T03:10:57;9.45;;;7.28;;
53253;SDS011;39148;53.332;6.922;2023-03-19T03:13:23;10.15;;;7.55;;
53253;SDS011;39148;53.332;6.922;2023-03-19T03:15:49;8.40;;;6.78;;
53253;SDS011;39148;53.332;6.922;2023-03-19T03:18:15;10.02;;;7.75;;
53253;SDS011;39148;53.332;6.922;2023-03-19T03:20:41;9.05;;;6.80;;
53253;SDS011;39148;53.332;6.922;2023-03-19T03:23:07;8.13;;;6.88;;
53253;SDS011;39148;53.332;6.922;2023-03-19T03:25:34;9.77;;;6.82;;
53253;SDS011;39148;53.332;6.922;2023-03-19T03:27:59;9.85;;;7.15;;
53253;SDS011;39148;53.332;6.922;2023-03-19T03:30:25;8.35;;;6.57;;
53253;SDS011;39148;53.332;6.922;2023-03-19T03:32:51;7.40;;;6.30;;
53253;SDS011;39148;53.332;6.922;2023-03-19T03:35:17;8.32;;;6.88;;
53253;SDS011;39148;53.332;6.922;2023-03-19T03:37:46;7.78;;;6.30;;
53253;SDS011;39148;53.332;6.922;2023-03-19T03:40:15;8.02;;;6.10;;
53253;SDS011;39148;53.332;6.922;2023-03-19T03:42:43;7.18;;;6.18;;
53253;SDS011;39148;53.332;6.922;2023-03-19T03:45:09;8.55;;;6.43;;
53253;SDS011;39148;53.332;6.922;2023-03-19T03:47:36;8.52;;;6.25;;
53253;SDS011;39148;53.332;6.922;2023-03-19T03:50:03;7.47;;;6.25;;
53253;SDS011;39148;53.332;6.922;2023-03-19T03:52:30;8.98;;;6.10;;
53253;SDS011;39148;53.332;6.922;2023-03-19T03:54:58;7.32;;;6.30;;
53253;SDS011;39148;53.332;6.922;2023-03-19T03:57:24;7.32;;;5.93;;
53253;SDS011;39148;53.332;6.922;2023-03-19T03:59:51;7.20;;;6.03;;
53253;SDS011;39148;53.332;6.922;2023-03-19T04:02:17;8.55;;;6.68;;
53253;SDS011;39148;53.332;6.922;2023-03-19T04:04:43;10.35;;;6.45;;
53253;SDS011;39148;53.332;6.922;2023-03-19T04:07:10;7.95;;;5.95;;
53253;SDS011;39148;53.332;6.922;2023-03-19T04:09:36;8.32;;;5.88;;
53253;SDS011;39148;53.332;6.922;2023-03-19T04:12:02;7.65;;;5.80;;
53253;SDS011;39148;53.332;6.922;2023-03-19T04:14:27;7.95;;;5.78;;
53253;SDS011;39148;53.332;6.922;2023-03-19T04:16:53;8.82;;;6.00;;
53253;SDS011;39148;53.332;6.922;2023-03-19T04:19:19;7.75;;;5.70;;
53253;SDS011;39148;53.332;6.922;2023-03-19T04:21:45;6.38;;;5.13;;
53253;SDS011;39148;53.332;6.922;2023-03-19T04:24:11;7.18;;;5.95;;
53253;SDS011;39148;53.332;6.922;2023-03-19T04:26:37;7.20;;;5.22;;
53253;SDS011;39148;53.332;6.922;2023-03-19T04:29:03;8.02;;;6.18;;
53253;SDS011;39148;53.332;6.922;2023-03-19T04:31:30;7.38;;;5.22;;
53253;SDS011;39148;53.332;6.922;2023-03-19T04:33:55;6.78;;;5.35;;
53253;SDS011;39148;53.332;6.922;2023-03-19T04:36:21;6.80;;;5.53;;
53253;SDS011;39148;53.332;6.922;2023-03-19T04:38:47;6.85;;;5.28;;
53253;SDS011;39148;53.332;6.922;2023-03-19T04:41:13;7.00;;;5.50;;
53253;SDS011;39148;53.332;6.922;2023-03-19T04:43:43;7.20;;;5.78;;
53253;SDS011;39148;53.332;6.922;2023-03-19T04:46:09;7.85;;;5.22;;
53253;SDS011;39148;53.332;6.922;2023-03-19T04:48:35;7.40;;;5.57;;
53253;SDS011;39148;53.332;6.922;2023-03-19T04:51:03;7.97;;;5.75;;
53253;SDS011;39148;53.332;6.922;2023-03-19T04:53:32;8.00;;;4.88;;
53253;SDS011;39148;53.332;6.922;2023-03-19T04:55:59;8.07;;;5.43;;
53253;SDS011;39148;53.332;6.922;2023-03-19T04:58:24;8.60;;;5.65;;
53253;SDS011;39148;53.332;6.922;2023-03-19T05:00:51;7.72;;;5.50;;
53253;SDS011;39148;53.332;6.922;2023-03-19T05:03:17;6.80;;;5.15;;
53253;SDS011;39148;53.332;6.922;2023-03-19T05:05:43;7.57;;;5.47;;
53253;SDS011;39148;53.332;6.922;2023-03-19T05:08:09;7.18;;;5.50;;
53253;SDS011;39148;53.332;6.922;2023-03-19T05:10:36;6.82;;;5.20;;
53253;SDS011;39148;53.332;6.922;2023-03-19T05:13:02;7.38;;;5.15;;
53253;SDS011;39148;53.332;6.922;2023-03-19T05:15:28;9.13;;;5.45;;
53253;SDS011;39148;53.332;6.922;2023-03-19T05:17:54;6.95;;;5.05;;
53253;SDS011;39148;53.332;6.922;2023-03-19T05:20:20;6.57;;;4.65;;
53253;SDS011;39148;53.332;6.922;2023-03-19T05:22:46;7.20;;;5.28;;
53253;SDS011;39148;53.332;6.922;2023-03-19T05:25:12;6.90;;;5.07;;
53253;SDS011;39148;53.332;6.922;2023-03-19T05:27:38;6.05;;;4.75;;
53253;SDS011;39148;53.332;6.922;2023-03-19T05:30:05;7.10;;;5.38;;
53253;SDS011;39148;53.332;6.922;2023-03-19T05:32:31;6.88;;;4.90;;
53253;SDS011;39148;53.332;6.922;2023-03-19T05:34:57;6.65;;;5.15;;
53253;SDS011;39148;53.332;6.922;2023-03-19T05:37:24;6.88;;;4.88;;
53253;SDS011;39148;53.332;6.922;2023-03-19T05:39:50;6.90;;;4.65;;
53253;SDS011;39148;53.332;6.922;2023-03-19T05:42:16;6.85;;;4.90;;
53253;SDS011;39148;53.332;6.922;2023-03-19T05:44:42;7.95;;;5.10;;
53253;SDS011;39148;53.332;6.922;2023-03-19T05:47:09;7.43;;;4.55;;
53253;SDS011;39148;53.332;6.922;2023-03-19T05:49:36;7.05;;;4.85;;
53253;SDS011;39148;53.332;6.922;2023-03-19T05:52:02;6.50;;;4.78;;
53253;SDS011;39148;53.332;6.922;2023-03-19T05:54:28;7.15;;;4.80;;
53253;SDS011;39148;53.332;6.922;2023-03-19T05:56:54;6.05;;;4.28;;
53253;SDS011;39148;53.332;6.922;2023-03-19T05:59:20;5.53;;;4.22;;
53253;SDS011;39148;53.332;6.922;2023-03-19T06:01:46;6.13;;;4.30;;
53253;SDS011;39148;53.332;6.922;2023-03-19T06:04:12;6.18;;;4.20;;
53253;SDS011;39148;53.332;6.922;2023-03-19T06:06:38;5.97;;;4.25;;
53253;SDS011;39148;53.332;6.922;2023-03-19T06:09:03;6.65;;;5.03;;
53253;SDS011;39148;53.332;6.922;2023-03-19T06:11:29;7.18;;;4.72;;
53253;SDS011;39148;53.332;6.922;2023-03-19T06:13:56;6.90;;;4.35;;
53253;SDS011;39148;53.332;6.922;2023-03-19T06:16:22;6.00;;;4.03;;
53253;SDS011;39148;53.332;6.922;2023-03-19T06:18:47;6.65;;;4.38;;
53253;SDS011;39148;53.332;6.922;2023-03-19T06:21:13;5.40;;;4.10;;
53253;SDS011;39148;53.332;6.922;2023-03-19T06:23:39;5.93;;;4.40;;
53253;SDS011;39148;53.332;6.922;2023-03-19T06:26:05;6.40;;;4.35;;
53253;SDS011;39148;53.332;6.922;2023-03-19T06:28:31;6.20;;;4.40;;
53253;SDS011;39148;53.332;6.922;2023-03-19T06:30:57;6.22;;;4.43;;
53253;SDS011;39148;53.332;6.922;2023-03-19T06:33:23;7.28;;;4.47;;
53253;SDS011;39148;53.332;6.922;2023-03-19T06:35:52;8.10;;;4.43;;
53253;SDS011;39148;53.332;6.922;2023-03-19T06:38:18;6.35;;;4.32;;
53253;SDS011;39148;53.332;6.922;2023-03-19T06:40:44;6.82;;;4.43;;
53253;SDS011;39148;53.332;6.922;2023-03-19T06:43:10;6.53;;;4.55;;
53253;SDS011;39148;53.332;6.922;2023-03-19T06:45:37;6.93;;;4.78;;
53253;SDS011;39148;53.332;6.922;2023-03-19T06:48:02;5.78;;;4.18;;
53253;SDS011;39148;53.332;6.922;2023-03-19T06:50:28;6.30;;;4.30;;
53253;SDS011;39148;53.332;6.922;2023-03-19T06:52:54;6.50;;;4.47;;
53253;SDS011;39148;53.332;6.922;2023-03-19T06:55:20;6.13;;;4.25;;
53253;SDS011;39148;53.332;6.922;2023-03-19T06:57:49;5.75;;;4.20;;
53253;SDS011;39148;53.332;6.922;2023-03-19T07:00:15;6.15;;;4.30;;
53253;SDS011;39148;53.332;6.922;2023-03-19T07:02:42;6.10;;;4.25;;
53253;SDS011;39148;53.332;6.922;2023-03-19T07:05:08;6.68;;;4.32;;
53253;SDS011;39148;53.332;6.922;2023-03-19T07:07:34;6.28;;;4.20;;
53253;SDS011;39148;53.332;6.922;2023-03-19T07:10:00;6.35;;;4.20;;
53253;SDS011;39148;53.332;6.922;2023-03-19T07:12:26;5.60;;;3.90;;
53253;SDS011;39148;53.332;6.922;2023-03-19T07:14:53;5.78;;;3.92;;
53253;SDS011;39148;53.332;6.922;2023-03-19T07:17:20;5.40;;;3.80;;
53253;SDS011;39148;53.332;6.922;2023-03-19T07:19:47;6.03;;;4.13;;
53253;SDS011;39148;53.332;6.922;2023-03-19T07:22:13;6.00;;;4.10;;
53253;SDS011;39148;53.332;6.922;2023-03-19T07:24:39;5.30;;;3.80;;
53253;SDS011;39148;53.332;6.922;2023-03-19T07:27:05;5.35;;;4.10;;
53253;SDS011;39148;53.332;6.922;2023-03-19T07:29:31;5.45;;;4.00;;
53253;SDS011;39148;53.332;6.922;2023-03-19T07:31:57;6.47;;;3.75;;
53253;SDS011;39148;53.332;6.922;2023-03-19T07:34:23;5.68;;;4.00;;
53253;SDS011;39148;53.332;6.922;2023-03-19T07:36:49;5.65;;;3.70;;
53253;SDS011;39148;53.332;6.922;2023-03-19T07:39:15;4.85;;;3.65;;
53253;SDS011;39148;53.332;6.922;2023-03-19T07:41:41;5.32;;;3.78;;
53253;SDS011;39148;53.332;6.922;2023-03-19T07:44:09;5.57;;;3.72;;
53253;SDS011;39148;53.332;6.922;2023-03-19T07:46:35;6.50;;;3.72;;
53253;SDS011;39148;53.332;6.922;2023-03-19T07:49:01;5.47;;;3.53;;
53253;SDS011;39148;53.332;6.922;2023-03-19T07:51:27;5.45;;;3.67;;
53253;SDS011;39148;53.332;6.922;2023-03-19T07:53:53;5.68;;;3.72;;
53253;SDS011;39148;53.332;6.922;2023-03-19T07:56:19;6.38;;;4.10;;
53253;SDS011;39148;53.332;6.922;2023-03-19T07:58:45;5.85;;;3.45;;
53253;SDS011;39148;53.332;6.922;2023-03-19T08:01:11;5.55;;;3.65;;
53253;SDS011;39148;53.332;6.922;2023-03-19T08:03:37;7.25;;;3.83;;
53253;SDS011;39148;53.332;6.922;2023-03-19T08:06:03;5.57;;;3.70;;
53253;SDS011;39148;53.332;6.922;2023-03-19T08:08:29;6.50;;;3.58;;
53253;SDS011;39148;53.332;6.922;2023-03-19T08:10:55;5.20;;;3.60;;
53253;SDS011;39148;53.332;6.922;2023-03-19T08:13:21;6.32;;;4.28;;
53253;SDS011;39148;53.332;6.922;2023-03-19T08:15:48;6.05;;;3.92;;
53253;SDS011;39148;53.332;6.922;2023-03-19T08:18:15;5.40;;;3.63;;
53253;SDS011;39148;53.332;6.922;2023-03-19T08:20:41;5.95;;;4.30;;
53253;SDS011;39148;53.332;6.922;2023-03-19T08:23:09;5.57;;;3.83;;
53253;SDS011;39148;53.332;6.922;2023-03-19T08:25:36;5.97;;;3.92;;
53253;SDS011;39148;53.332;6.922;2023-03-19T08:28:02;7.05;;;4.35;;
53253;SDS011;39148;53.332;6.922;2023-03-19T08:30:28;5.57;;;4.10;;
53253;SDS011;39148;53.332;6.922;2023-03-19T08:32:54;7.18;;;4.53;;
53253;SDS011;39148;53.332;6.922;2023-03-19T08:35:20;6.55;;;4.65;;
53253;SDS011;39148;53.332;6.922;2023-03-19T08:37:46;7.57;;;5.00;;
53253;SDS011;39148;53.332;6.922;2023-03-19T08:40:12;5.93;;;4.63;;
53253;SDS011;39148;53.332;6.922;2023-03-19T08:42:38;7.10;;;4.63;;
53253;SDS011;39148;53.332;6.922;2023-03-19T08:45:06;7.47;;;5.45;;
53253;SDS011;39148;53.332;6.922;2023-03-19T08:47:33;7.15;;;4.93;;
53253;SDS011;39148;53.332;6.922;2023-03-19T08:49:59;8.80;;;5.43;;
53253;SDS011;39148;53.332;6.922;2023-03-19T08:52:25;8.02;;;5.57;;
53253;SDS011;39148;53.332;6.922;2023-03-19T08:54:51;7.05;;;5.50;;
53253;SDS011;39148;53.332;6.922;2023-03-19T08:57:17;8.25;;;5.70;;
53253;SDS011;39148;53.332;6.922;2023-03-19T08:59:43;8.40;;;6.05;;
53253;SDS011;39148;53.332;6.922;2023-03-19T09:02:10;7.50;;;6.25;;
53253;SDS011;39148;53.332;6.922;2023-03-19T09:04:39;7.70;;;5.75;;
53253;SDS011;39148;53.332;6.922;2023-03-19T09:07:05;8.02;;;6.10;;
53253;SDS011;39148;53.332;6.922;2023-03-19T09:09:31;7.72;;;5.85;;
53253;SDS011;39148;53.332;6.922;2023-03-19T09:11:57;7.45;;;5.85;;
53253;SDS011;39148;53.332;6.922;2023-03-19T09:14:23;8.57;;;6.40;;
53253;SDS011;39148;53.332;6.922;2023-03-19T09:16:48;9.02;;;5.70;;
53253;SDS011;39148;53.332;6.922;2023-03-19T09:19:14;8.48;;;6.00;;
53253;SDS011;39148;53.332;6.922;2023-03-19T09:21:41;9.68;;;6.13;;
53253;SDS011;39148;53.332;6.922;2023-03-19T09:24:08;8.95;;;6.10;;
53253;SDS011;39148;53.332;6.922;2023-03-19T09:26:34;9.05;;;6.10;;
53253;SDS011;39148;53.332;6.922;2023-03-19T09:29:00;8.00;;;5.72;;
53253;SDS011;39148;53.332;6.922;2023-03-19T09:31:26;9.48;;;5.60;;
53253;SDS011;39148;53.332;6.922;2023-03-19T09:33:52;8.23;;;5.78;;
53253;SDS011;39148;53.332;6.922;2023-03-19T09:36:18;8.23;;;5.38;;
53253;SDS011;39148;53.332;6.922;2023-03-19T09:38:44;7.00;;;5.40;;
53253;SDS011;39148;53.332;6.922;2023-03-19T09:46:13;8.75;;;6.18;;
53253;SDS011;39148;53.332;6.922;2023-03-19T09:48:47;7.47;;;6.10;;
53253;SDS011;39148;53.332;6.922;2023-03-19T09:51:20;9.45;;;6.95;;
53253;SDS011;39148;53.332;6.922;2023-03-19T09:54:01;8.18;;;6.68;;
53253;SDS011;39148;53.332;6.922;2023-03-19T09:56:28;8.00;;;6.38;;
53253;SDS011;39148;53.332;6.922;2023-03-19T09:58:56;8.60;;;6.63;;
53253;SDS011;39148;53.332;6.922;2023-03-19T10:01:28;8.80;;;6.85;;
53253;SDS011;39148;53.332;6.922;2023-03-19T10:06:48;8.18;;;6.38;;
53253;SDS011;39148;53.332;6.922;2023-03-19T10:17:18;7.60;;;5.63;;
53253;SDS011;39148;53.332;6.922;2023-03-19T10:19:54;8.48;;;5.85;;
53253;SDS011;39148;53.332;6.922;2023-03-19T10:22:29;6.95;;;5.25;;
53253;SDS011;39148;53.332;6.922;2023-03-19T10:25:01;7.13;;;5.30;;
53253;SDS011;39148;53.332;6.922;2023-03-19T10:27:27;7.45;;;5.10;;
53253;SDS011;39148;53.332;6.922;2023-03-19T10:29:54;7.47;;;5.32;;
53253;SDS011;39148;53.332;6.922;2023-03-19T10:32:36;6.80;;;5.28;;
53253;SDS011;39148;53.332;6.922;2023-03-19T10:35:06;7.90;;;5.10;;
53253;SDS011;39148;53.332;6.922;2023-03-19T10:37:42;7.35;;;5.10;;
53253;SDS011;39148;53.332;6.922;2023-03-19T10:40:21;7.47;;;5.55;;
53253;SDS011;39148;53.332;6.922;2023-03-19T10:45:40;7.88;;;5.65;;
53253;SDS011;39148;53.332;6.922;2023-03-19T10:48:06;8.38;;;5.50;;
53253;SDS011;39148;53.332;6.922;2023-03-19T10:55:47;7.30;;;4.95;;
53253;SDS011;39148;53.332;6.922;2023-03-19T10:58:18;7.90;;;5.38;;
53253;SDS011;39148;53.332;6.922;2023-03-19T11:00:48;9.88;;;4.93;;
53253;SDS011;39148;53.332;6.922;2023-03-19T11:03:37;7.55;;;5.18;;
53253;SDS011;39148;53.332;6.922;2023-03-19T11:08:35;7.43;;;4.80;;
53253;SDS011;39148;53.332;6.922;2023-03-19T11:11:02;7.22;;;4.93;;
53253;SDS011;39148;53.332;6.922;2023-03-19T11:13:28;7.15;;;4.88;;
53253;SDS011;39148;53.332;6.922;2023-03-19T11:15:56;7.00;;;5.03;;
53253;SDS011;39148;53.332;6.922;2023-03-19T11:18:28;7.28;;;5.25;;
53253;SDS011;39148;53.332;6.922;2023-03-19T11:23:29;6.97;;;4.57;;
53253;SDS011;39148;53.332;6.922;2023-03-19T11:25:59;6.85;;;4.68;;
53253;SDS011;39148;53.332;6.922;2023-03-19T11:28:26;7.38;;;4.57;;
53253;SDS011;39148;53.332;6.922;2023-03-19T11:36:00;6.60;;;4.70;;
53253;SDS011;39148;53.332;6.922;2023-03-19T11:38:29;7.35;;;5.13;;
53253;SDS011;39148;53.332;6.922;2023-03-19T11:41:07;6.60;;;4.82;;
53253;SDS011;39148;53.332;6.922;2023-03-19T11:46:15;7.75;;;4.93;;
53253;SDS011;39148;53.332;6.922;2023-03-19T11:54:25;7.25;;;4.78;;
53253;SDS011;39148;53.332;6.922;2023-03-19T11:57:12;6.72;;;4.88;;
53253;SDS011;39148;53.332;6.922;2023-03-19T12:08:18;6.22;;;4.70;;
53253;SDS011;39148;53.332;6.922;2023-03-19T12:10:58;5.88;;;4.30;;
53253;SDS011;39148;53.332;6.922;2023-03-19T12:13:47;6.65;;;4.38;;
53253;SDS011;39148;53.332;6.922;2023-03-19T12:35:49;6.45;;;4.35;;
53253;SDS011;39148;53.332;6.922;2023-03-19T12:40:59;7.03;;;4.70;;
53253;SDS011;39148;53.332;6.922;2023-03-19T12:46:13;6.40;;;4.30;;
53253;SDS011;39148;53.332;6.922;2023-03-19T12:48:58;6.20;;;4.45;;
53253;SDS011;39148;53.332;6.922;2023-03-19T12:51:35;6.60;;;4.65;;
53253;SDS011;39148;53.332;6.922;2023-03-19T12:56:48;6.47;;;4.43;;
53253;SDS011;39148;53.332;6.922;2023-03-19T13:04:49;6.10;;;4.55;;
53253;SDS011;39148;53.332;6.922;2023-03-19T13:10:22;5.93;;;4.20;;
53253;SDS011;39148;53.332;6.922;2023-03-19T13:12:51;6.32;;;4.85;;
53253;SDS011;39148;53.332;6.922;2023-03-19T13:18:03;6.82;;;4.82;;
53253;SDS011;39148;53.332;6.922;2023-03-19T13:23:27;7.68;;;5.32;;
53253;SDS011;39148;53.332;6.922;2023-03-19T13:25:56;6.55;;;4.78;;
53253;SDS011;39148;53.332;6.922;2023-03-19T13:28:26;6.85;;;5.35;;
53253;SDS011;39148;53.332;6.922;2023-03-19T13:30:58;7.40;;;5.40;;
53253;SDS011;39148;53.332;6.922;2023-03-19T13:33:24;7.32;;;5.38;;
53253;SDS011;39148;53.332;6.922;2023-03-19T13:35:51;7.00;;;5.10;;
53253;SDS011;39148;53.332;6.922;2023-03-19T13:38:21;7.95;;;5.60;;
53253;SDS011;39148;53.332;6.922;2023-03-19T13:45:50;8.73;;;6.15;;
53253;SDS011;39148;53.332;6.922;2023-03-19T13:51:21;9.45;;;6.45;;
53253;SDS011;39148;53.332;6.922;2023-03-19T13:54:06;10.55;;;7.10;;
53253;SDS011;39148;53.332;6.922;2023-03-19T14:01:59;10.65;;;8.15;;
53253;SDS011;39148;53.332;6.922;2023-03-19T14:04:29;10.38;;;7.93;;
53253;SDS011;39148;53.332;6.922;2023-03-19T14:09:40;10.18;;;7.85;;
53253;SDS011;39148;53.332;6.922;2023-03-19T14:12:36;9.93;;;8.18;;
53253;SDS011;39148;53.332;6.922;2023-03-19T14:28:50;12.68;;;9.70;;
53253;SDS011;39148;53.332;6.922;2023-03-19T14:31:32;12.20;;;9.25;;
53253;SDS011;39148;53.332;6.922;2023-03-19T14:34:02;12.20;;;9.07;;
53253;SDS011;39148;53.332;6.922;2023-03-19T14:36:55;11.88;;;9.10;;
53253;SDS011;39148;53.332;6.922;2023-03-19T14:39:33;14.00;;;10.20;;
53253;SDS011;39148;53.332;6.922;2023-03-19T14:42:06;13.75;;;10.38;;
53253;SDS011;39148;53.332;6.922;2023-03-19T14:53:10;14.60;;;10.70;;
53253;SDS011;39148;53.332;6.922;2023-03-19T14:55:39;15.50;;;10.90;;
53253;SDS011;39148;53.332;6.922;2023-03-19T14:58:08;18.13;;;11.75;;
53253;SDS011;39148;53.332;6.922;2023-03-19T15:00:38;15.48;;;10.48;;
53253;SDS011;39148;53.332;6.922;2023-03-19T15:05:44;17.25;;;11.55;;
53253;SDS011;39148;53.332;6.922;2023-03-19T15:08:14;16.08;;;11.93;;
53253;SDS011;39148;53.332;6.922;2023-03-19T15:19:01;18.30;;;12.70;;
53253;SDS011;39148;53.332;6.922;2023-03-19T15:21:28;21.90;;;14.02;;
53253;SDS011;39148;53.332;6.922;2023-03-19T15:23:55;18.48;;;13.00;;
53253;SDS011;39148;53.332;6.922;2023-03-19T15:26:35;20.05;;;14.00;;
53253;SDS011;39148;53.332;6.922;2023-03-19T15:29:02;20.17;;;13.70;;
53253;SDS011;39148;53.332;6.922;2023-03-19T15:34:22;20.08;;;13.20;;
53253;SDS011;39148;53.332;6.922;2023-03-19T15:36:51;17.38;;;12.63;;
53253;SDS011;39148;53.332;6.922;2023-03-19T15:39:48;18.23;;;12.07;;
53253;SDS011;39148;53.332;6.922;2023-03-19T15:42:18;18.35;;;11.90;;
53253;SDS011;39148;53.332;6.922;2023-03-19T15:44:50;18.23;;;12.07;;
53253;SDS011;39148;53.332;6.922;2023-03-19T15:47:20;19.77;;;12.30;;
53253;SDS011;39148;53.332;6.922;2023-03-19T15:49:57;16.35;;;11.32;;
53253;SDS011;39148;53.332;6.922;2023-03-19T15:52:26;18.85;;;11.52;;
53253;SDS011;39148;53.332;6.922;2023-03-19T15:54:55;20.67;;;12.10;;
53253;SDS011;39148;53.332;6.922;2023-03-19T15:57:21;17.88;;;11.15;;
53253;SDS011;39148;53.332;6.922;2023-03-19T15:59:50;16.20;;;10.55;;
53253;SDS011;39148;53.332;6.922;2023-03-19T16:02:38;14.85;;;10.00;;
53253;SDS011;39148;53.332;6.922;2023-03-19T16:05:05;16.50;;;10.63;;
53253;SDS011;39148;53.332;6.922;2023-03-19T16:07:47;16.98;;;10.85;;
53253;SDS011;39148;53.332;6.922;2023-03-19T16:10:30;15.90;;;10.77;;
53253;SDS011;39148;53.332;6.922;2023-03-19T16:12:58;18.60;;;10.25;;
53253;SDS011;39148;53.332;6.922;2023-03-19T16:20:41;16.80;;;11.05;;
53253;SDS011;39148;53.332;6.922;2023-03-19T16:23:10;16.80;;;10.85;;
53253;SDS011;39148;53.332;6.922;2023-03-19T16:25:42;18.17;;;11.18;;
53253;SDS011;39148;53.332;6.922;2023-03-19T16:28:14;17.83;;;11.13;;
53253;SDS011;39148;53.332;6.922;2023-03-19T16:30:45;15.70;;;10.43;;
53253;SDS011;39148;53.332;6.922;2023-03-19T16:33:12;17.77;;;10.47;;
53253;SDS011;39148;53.332;6.922;2023-03-19T16:35:38;17.10;;;11.52;;
53253;SDS011;39148;53.332;6.922;2023-03-19T16:38:09;18.50;;;11.38;;
53253;SDS011;39148;53.332;6.922;2023-03-19T16:41:34;18.83;;;11.25;;
53253;SDS011;39148;53.332;6.922;2023-03-19T16:43:44;18.50;;;11.10;;
53253;SDS011;39148;53.332;6.922;2023-03-19T16:46:11;17.80;;;11.32;;
53253;SDS011;39148;53.332;6.922;2023-03-19T16:48:40;19.38;;;12.23;;
53253;SDS011;39148;53.332;6.922;2023-03-19T16:51:16;19.65;;;11.30;;
53253;SDS011;39148;53.332;6.922;2023-03-19T16:53:44;19.20;;;12.30;;
53253;SDS011;39148;53.332;6.922;2023-03-19T16:56:12;20.05;;;11.95;;
53253;SDS011;39148;53.332;6.922;2023-03-19T16:58:40;19.25;;;11.85;;
53253;SDS011;39148;53.332;6.922;2023-03-19T17:01:12;19.13;;;11.82;;
53253;SDS011;39148;53.332;6.922;2023-03-19T17:03:41;19.15;;;11.93;;
53253;SDS011;39148;53.332;6.922;2023-03-19T17:06:09;20.90;;;12.85;;
53253;SDS011;39148;53.332;6.922;2023-03-19T17:08:36;21.77;;;12.50;;
53253;SDS011;39148;53.332;6.922;2023-03-19T17:11:02;18.27;;;11.57;;
53253;SDS011;39148;53.332;6.922;2023-03-19T17:13:29;21.88;;;12.23;;
53253;SDS011;39148;53.332;6.922;2023-03-19T17:15:57;19.33;;;12.02;;
53253;SDS011;39148;53.332;6.922;2023-03-19T17:18:27;20.45;;;11.93;;
53253;SDS011;39148;53.332;6.922;2023-03-19T17:21:14;18.63;;;11.82;;
53253;SDS011;39148;53.332;6.922;2023-03-19T17:23:55;18.92;;;11.73;;
53253;SDS011;39148;53.332;6.922;2023-03-19T17:26:22;18.33;;;12.00;;